createdAt,value
2023-03-22T00:00:56.800Z,13.23
2023-03-22T00:05:58.681Z,12.55
2023-03-22T00:11:00.813Z,16.40
2023-03-22T00:16:03.207Z,13.52
2023-03-22T00:21:05.609Z,14.85
2023-03-22T00:26:09.379Z,14.38
2023-03-22T00:31:11.388Z,16.17
2023-03-22T00:36:13.370Z,16.63
2023-03-22T00:41:20.820Z,14.00
2023-03-22T00:46:22.621Z,15.75
2023-03-22T00:51:24.461Z,13.98
2023-03-22T00:56:28.707Z,14.57
2023-03-22T01:01:30.611Z,14.57
2023-03-22T01:06:39.652Z,13.00
2023-03-22T01:11:43.072Z,13.85
2023-03-22T01:16:44.959Z,13.15
2023-03-22T01:21:47.403Z,12.75
2023-03-22T01:26:49.324Z,14.48
2023-03-22T01:31:51.219Z,10.93
2023-03-22T01:36:54.099Z,11.80
2023-03-22T01:41:55.922Z,13.02
2023-03-22T01:46:57.761Z,11.15
2023-03-22T01:52:05.953Z,8.65
2023-03-22T01:57:07.826Z,10.40
2023-03-22T02:02:10.950Z,9.70
2023-03-22T02:07:16.338Z,8.63
2023-03-22T02:12:30.187Z,10.25
2023-03-22T02:17:42.262Z,10.35
2023-03-22T02:22:58.242Z,9.43
2023-03-22T02:28:12.348Z,9.35
2023-03-22T02:33:43.502Z,12.10
2023-03-22T02:39:01.149Z,10.73
2023-03-22T02:44:08.627Z,9.75
2023-03-22T02:49:26.339Z,8.95
2023-03-22T02:54:38.039Z,9.65
2023-03-22T02:59:41.760Z,8.48
2023-03-22T03:04:48.772Z,8.55
2023-03-22T03:09:51.414Z,10.13
2023-03-22T03:14:53.185Z,7.47
2023-03-22T03:20:08.818Z,10.85
2023-03-22T03:25:18.347Z,9.35
2023-03-22T03:30:32.611Z,9.43
2023-03-22T03:35:39.397Z,6.35
2023-03-22T03:40:50.383Z,11.00
2023-03-22T03:45:53.779Z,6.60
2023-03-22T03:50:57.801Z,7.82
2023-03-22T03:55:59.527Z,8.55
2023-03-22T04:01:01.217Z,8.15
2023-03-22T04:06:03.737Z,7.57
2023-03-22T04:11:05.603Z,8.75
2023-03-22T04:16:07.569Z,8.38
2023-03-22T04:21:12.109Z,7.82
2023-03-22T04:26:14.130Z,6.93
2023-03-22T04:31:16.037Z,7.93
2023-03-22T04:36:17.759Z,9.85
2023-03-22T04:41:19.425Z,8.25
2023-03-22T04:46:21.829Z,8.20
2023-03-22T04:51:23.728Z,9.10
2023-03-22T04:56:25.655Z,6.80
2023-03-22T05:01:27.517Z,8.60
2023-03-22T05:06:32.775Z,8.05
2023-03-22T05:11:34.773Z,7.45
2023-03-22T05:16:40.704Z,9.07
2023-03-22T05:21:44.149Z,11.40
2023-03-22T05:26:45.887Z,9.18
2023-03-22T05:31:47.813Z,11.00
2023-03-22T05:36:51.564Z,9.98
2023-03-22T05:41:53.940Z,9.35
2023-03-22T05:46:56.148Z,10.63
2023-03-22T05:51:59.105Z,11.77
2023-03-22T05:57:04.810Z,11.63
2023-03-22T06:02:07.059Z,11.10
2023-03-22T06:07:08.984Z,13.63
2023-03-22T06:12:11.814Z,12.68
2023-03-22T06:17:13.636Z,12.25
2023-03-22T06:22:16.100Z,13.38
2023-03-22T06:27:18.117Z,12.98
2023-03-22T06:32:20.774Z,13.10
2023-03-22T06:37:25.281Z,12.60
2023-03-22T06:42:27.264Z,14.50
2023-03-22T06:47:29.264Z,14.55
2023-03-22T06:52:31.069Z,11.07
2023-03-22T06:57:32.955Z,11.77
2023-03-22T07:02:34.784Z,13.98
2023-03-22T07:07:36.613Z,11.98
2023-03-22T07:12:38.563Z,14.07
2023-03-22T07:17:40.554Z,12.57
2023-03-22T07:22:42.293Z,27.02
2023-03-22T07:27:44.175Z,12.60
2023-03-22T07:32:46.266Z,12.50
2023-03-22T07:37:48.837Z,12.68
2023-03-22T07:42:51.068Z,11.95
2023-03-22T07:47:52.916Z,10.43
2023-03-22T07:52:54.814Z,13.48
2023-03-22T07:57:56.607Z,11.30
2023-03-22T08:02:58.432Z,14.65
2023-03-22T08:08:00.598Z,11.25
2023-03-22T08:13:02.321Z,13.52
2023-03-22T08:18:04.112Z,12.63
2023-03-22T08:23:07.998Z,13.13
2023-03-22T08:28:10.576Z,13.48
2023-03-22T08:33:12.838Z,11.43
2023-03-22T08:38:14.635Z,10.98
2023-03-22T08:43:16.324Z,12.50
2023-03-22T08:48:18.234Z,12.05
2023-03-22T08:53:19.957Z,13.07
2023-03-22T08:58:21.676Z,12.85
2023-03-22T09:03:24.943Z,14.88
2023-03-22T09:08:27.207Z,10.90
2023-03-22T09:13:31.165Z,13.95
2023-03-22T09:18:32.886Z,9.18
2023-03-22T09:23:36.482Z,7.80
2023-03-22T09:28:38.300Z,7.95
2023-03-22T09:33:41.505Z,6.65
2023-03-22T09:38:43.356Z,10.25
2023-03-22T09:43:55.831Z,7.10
2023-03-22T09:49:04.354Z,7.28
2023-03-22T09:54:35.361Z,7.63
2023-03-22T09:59:56.986Z,9.05
2023-03-22T10:04:58.615Z,9.25
2023-03-22T10:10:21.056Z,7.05
2023-03-22T10:15:30.842Z,8.60
2023-03-22T10:21:00.011Z,6.07
2023-03-22T10:26:03.821Z,7.53
2023-03-22T10:31:06.790Z,7.28
2023-03-22T10:36:13.669Z,6.15
2023-03-22T10:41:18.679Z,5.82
2023-03-22T10:46:24.323Z,7.15
2023-03-22T10:52:02.173Z,6.85
2023-03-22T10:57:04.096Z,8.00
2023-03-22T11:02:18.233Z,6.22
2023-03-22T11:07:36.547Z,5.55
2023-03-22T11:12:48.230Z,5.40
2023-03-22T11:17:50.512Z,5.40
2023-03-22T11:22:52.682Z,6.32
2023-03-22T11:28:37.078Z,7.40
2023-03-22T11:33:58.307Z,6.65
2023-03-22T11:39:01.894Z,2.95
2023-03-22T11:44:07.877Z,3.33
2023-03-22T11:49:14.795Z,4.63
2023-03-22T11:54:30.536Z,2.63
2023-03-22T11:59:45.649Z,4.35
2023-03-22T12:04:49.671Z,2.95
2023-03-22T12:10:06.847Z,1.85
2023-03-22T12:15:17.634Z,3.70
2023-03-22T12:20:29.814Z,4.03
2023-03-22T12:25:35.931Z,2.58
2023-03-22T12:30:47.941Z,2.60
2023-03-22T12:35:55.279Z,7.47
2023-03-22T12:41:00.457Z,2.25
2023-03-22T12:46:05.363Z,2.25
2023-03-22T12:51:09.658Z,1.88
2023-03-22T12:56:24.783Z,2.08
2023-03-22T13:01:47.774Z,3.13
2023-03-22T13:06:53.595Z,2.70
2023-03-22T13:12:17.115Z,3.45
2023-03-22T13:17:25.313Z,3.63
2023-03-22T13:22:29.706Z,4.70
2023-03-22T13:27:50.125Z,4.22
2023-03-22T13:32:56.162Z,1.88
2023-03-22T13:38:07.705Z,5.00
2023-03-22T13:43:26.072Z,3.28
2023-03-22T13:49:02.627Z,5.10
2023-03-22T13:54:21.126Z,5.53
2023-03-22T13:59:30.003Z,5.20
2023-03-22T14:04:53.667Z,4.45
2023-03-22T14:10:06.692Z,3.10
2023-03-22T14:15:15.021Z,4.95
2023-03-22T14:20:23.373Z,4.10
